KBBW

Details ICAO KBBW
Name BROKEN BOW MUNI
Region United States
Timezone America/Chicago (UTC-6.0)
Plans Departing 0
Arriving 4
Stats Elevation 2,547 ft / 776 m (AMSL)
Location 41.436478° -99.642223°
Runways 1
Magnetic Variation 5.137° E
Sunrise 2017-12-10 13:55:35 UTC / 2017-12-10 07:55:35 Local
Sunset 2017-12-10 23:10:20 UTC / 2017-12-10 17:10:20 Local
Advertisement - Login to hide

Runways

ID Width Length Bearing (true) Bearing (mag) Surface Threshold Offset Overrun Length
14 75 ft / 23 m 4,203 ft / 1,281 m 148.60° 143.46° Concrete 0 ft / 0 m 0 ft / 0 m
32 75 ft / 23 m 4,203 ft / 1,281 m 328.60° 323.46° Concrete 0 ft / 0 m 0 ft / 0 m

Map

Weather


0- 5 10 15 20 25 30 35+ Temperature / ° C

Clouds and Precipitation
Forecast for 2017-12-11 06:00 UTC. Updated an hour ago

Ground ~20,000 ft ~40,000 ft Winds

METAR

KBBW 110553Z AUTO 31018KT 10SM CLR 09/M11 A3008 RMK AO2 SLP184 T00891111 10100 20011 401780011 56014

TAF

Not found

Frequencies

Recorded 120.00 MHz ASOS
Unicom 122.80 MHz CTAF/UNICOM
Warning: Do not use this data for real-world aviation or navigation. No guarantee of current accuracy is given.